To NAV CANADA Home Page Login to a new session Search on AWWS site Feedback and Comments Disclaimer Vers la page française équivalente Tips FAQ What's new on the site To the Forecasts and Observations / NOTAM section To "File a Flight Plan" website Publications and other links Update of the User's profile FIC Telephone Numbers My Weather Data Folder Route Weather Data Regional Weather Data Local Weather Data To the Forecasts and Observations / NOTAM section
Request Generated 05/28/2016 at 09:47:07 UTC . Weather information available at that time is displayed.

METAR/TAF

OTTAWA/MACDONALD-CARTIER INTL/ON    

METAR CYOW 280900Z 00000KT 15SM BKN120 18/15 A3003 RMK AC5 SLP171
DENSITY ALT 600FT=
METAR CYOW 280800Z 32006KT 15SM SKC 18/15 A3001 RMK SLP163 DENSITY
ALT 600FT=
METAR CYOW 280700Z 30006KT 15SM SKC 19/15 A3000 RMK SLP158 DENSITY
ALT 800FT=

TAF CYOW 280838Z 2809/2906 32005KT P6SM SKC
FM281200 03005KT P6SM BKN180
BECMG 2816/2818 09007KT
FM290400 09015KT P6SM BKN120
RMK NXT FCST BY 281200Z=
Your time UTC time
Weather data provided by Environment Canada and NAV CANADA